Latest Weather Observations for Ernabella/Pukatja

IDD60801

Issued at 5:01 pm CST Friday 22 June 2018 (issued every 10 minutes, with the page automatically refreshed every 10 minutes)

About weather observations | Map of weather stations | Latest weather observations for NT | Other Formats
Station Details ID: 016097 Name: PUKATJA Lat: -26.26 Lon: 132.18 Height: 703.2 m
Data from the previous 72 hours. | See also: Recent months at Ernabella/Pukatja
Date/Time
CST
Temp
°C
App
Temp
°C
Dew
Point
°C
Rel
Hum
%
Delta-T
°C
Wind Press
QNH
hPa
Press
MSL
hPa
Rain since
9am
mm
Dir  Spd
km/h
Gust
km/h
Spd
kts
Gust
kts
22/05:00pm 14.0 8.9 -1.6 34 6.5 SSE 15 26 8 14 1025.9 1025.6 0.0
22/04:30pm 14.0 9.0 -1.2 35 6.4 SSW 15 22 8 12 1025.8 1025.5 0.0
22/04:00pm 14.4 9.8 -0.8 35 6.5 S 13 17 7 9 1025.5 1025.2 0.0
22/03:30pm 14.7 11.3 -0.6 35 6.6 SSW 7 17 4 9 1025.5 1025.2 0.0
22/03:00pm 14.5 9.6 -0.8 35 6.6 S 15 24 8 13 1025.5 1025.2 0.0
22/02:30pm 15.1 11.4 0.2 36 6.6 SE 9 19 5 10 1025.5 1025.2 0.0
22/02:00pm 14.2 10.1 0.1 38 6.2 SE 11 26 6 14 1025.7 1025.4 0.0
22/01:30pm 13.6 9.1 -0.1 39 5.9 SW 13 22 7 12 1026.2 1025.8 0.0
22/01:00pm 13.0 8.1 -0.3 40 5.7 S 15 22 8 12 1026.6 1026.2 0.0
22/12:30pm 13.4 9.0 0.1 40 5.7 SSE 13 22 7 12 1027.0 1026.7 0.0
22/12:00pm 12.2 7.7 -0.3 42 5.3 SSE 13 26 7 14 1027.6 1027.2 0.0
22/11:30am 12.4 8.3 -0.1 42 5.3 E 11 19 6 10 1027.9 1027.5 0.0
22/11:00am 12.1 7.6 -0.4 42 5.3 SSE 13 19 7 10 1028.3 1028.0 0.0
22/10:30am 11.5 7.4 2.5 54 4.0 SE 13 17 7 9 1028.4 1028.1 0.0
22/10:00am 10.9 7.3 3.2 59 3.5 SSE 11 13 6 7 1028.5 1028.2 0.0
22/09:30am 10.4 7.3 3.7 63 3.1 SSE 9 15 5 8 1028.4 1028.1 0.0
22/09:00am 8.9 7.3 2.7 65 2.7 CALM 0 7 0 4 1028.1 1027.8 0.0
22/08:30am 6.2 3.7 1.3 71 2.0 NE 4 7 2 4 1027.7 1027.3 0.0
22/08:00am 5.1 3.2 0.5 72 1.9 CALM 0 0 0 0 1027.4 1027.1 0.0
22/07:30am 4.4 2.5 0.4 75 1.6 CALM 0 0 0 0 1027.3 1027.0 0.0
22/07:00am 3.8 1.8 0.0 76 1.5 CALM 0 0 0 0 1027.0 1026.7 0.0
22/06:30am 1.7 -1.3 -2.1 76 1.4 WNW 4 7 2 4 1026.7 1026.3 0.0
22/06:00am 2.0 -1.5 -1.2 79 1.2 WSW 7 9 4 5 1026.5 1026.1 0.0
22/05:30am 0.5 -1.8 -2.7 79 1.2 CALM 0 0 0 0 1026.3 1025.9 0.0
22/05:00am 2.2 -1.2 -2.1 73 1.6 SW 6 7 3 4 1026.3 1025.9 0.0
22/04:30am 2.9 -0.6 -1.1 75 1.5 WSW 7 9 4 5 1026.5 1026.1 0.0
22/04:00am 2.7 -0.8 -1.1 76 1.4 WSW 7 7 4 4 1026.5 1026.1 0.0
22/03:30am 2.7 -0.6 -1.6 73 1.6 WSW 6 7 3 4 1026.5 1026.1 0.0
22/03:00am 3.6 0.2 -0.6 74 1.6 SW 7 9 4 5 1026.5 1026.1 0.0
22/02:30am 2.2 -0.5 -2.1 73 1.6 SSW 2 7 1 4 1026.6 1026.2 0.0
22/02:00am 4.3 1.1 -0.7 70 1.9 WSW 6 7 3 4 1026.8 1026.5 0.0
22/01:30am 4.6 1.5 0.0 72 1.8 W 6 7 3 4 1027.0 1026.7 0.0
22/01:00am 5.3 2.9 -0.1 68 2.2 SSW 2 7 1 4 1027.0 1026.7 0.0
22/12:30am 6.0 2.7 -0.1 65 2.4 SSE 7 9 4 5 1027.2 1026.9 0.0
22/12:00am 8.4 4.5 0.9 59 3.1 SSE 11 13 6 7 1027.3 1027.0 0.0
 
Date/Time
CST
Temp
°C
App
Temp
°C
Dew
Point
°C
Rel
Hum
%
Delta-T
°C
Wind Press
QNH
hPa
Press
MSL
hPa
Rain since
9am
mm
Dir  Spd
km/h
Gust
km/h
Spd
kts
Gust
kts
21/11:30pm 8.6 4.3 1.1 59 3.2 SSE 13 15 7 8 1027.4 1027.1 0.0
21/11:00pm 8.9 4.3 1.3 59 3.3 SSE 15 17 8 9 1027.4 1027.1 0.0
21/10:30pm 9.2 4.5 1.1 57 3.4 SE 15 20 8 11 1027.4 1027.1 0.0
21/10:00pm 8.8 4.1 1.0 58 3.3 SSE 15 17 8 9 1027.6 1027.2 0.0
21/09:30pm 10.1 5.5 1.7 56 3.6 SE 15 19 8 10 1027.6 1027.2 0.0
21/09:00pm 10.8 6.2 1.6 53 4.0 SE 15 20 8 11 1027.4 1027.1 0.0
21/08:30pm 10.5 5.9 1.3 53 4.0 SE 15 20 8 11 1027.3 1027.0 0.0
21/08:00pm 10.8 6.6 1.6 53 4.0 SE 13 19 7 10 1027.2 1026.9 0.0
21/07:30pm 11.3 7.1 1.5 51 4.3 SE 13 20 7 11 1026.9 1026.6 0.0
21/07:00pm 11.6 7.0 1.5 50 4.5 SE 15 20 8 11 1026.7 1026.3 0.0
21/06:30pm 12.0 7.8 1.6 49 4.6 SE 13 19 7 10 1026.4 1026.0 0.0
21/06:00pm 12.7 7.8 1.7 47 4.9 SE 17 24 9 13 1025.9 1025.6 0.0
21/05:30pm 13.7 9.1 1.4 43 5.5 SSE 15 20 8 11 1025.7 1025.4 0.0
21/05:00pm 14.7 10.5 1.9 42 5.8 SSE 13 20 7 11 1025.7 1025.4 0.0
21/04:30pm 14.8 10.1 1.0 39 6.2 ESE 15 22 8 12 1025.6 1025.3 0.0
21/04:00pm 14.2 9.5 1.2 41 5.8 SE 15 24 8 13 1025.6 1025.3 0.0
21/03:30pm 14.8 11.0 1.7 41 5.9 SE 11 20 6 11 1025.3 1024.9 0.0
21/03:00pm 14.5 10.3 1.8 42 5.8 SSE 13 22 7 12 1025.3 1024.9 0.0
21/02:30pm 14.9 10.3 1.8 41 6.0 SE 15 28 8 15 1025.6 1025.3 0.0
21/02:00pm 16.0 11.6 2.8 41 6.2 SE 15 26 8 14 1025.8 1025.5 0.0
21/01:30pm 14.3 9.4 1.9 43 5.6 ESE 17 28 9 15 1026.4 1026.0 0.0
21/01:00pm 13.8 9.0 2.4 46 5.2 SE 17 26 9 14 1027.0 1026.7 0.0
21/12:30pm 13.6 9.6 2.8 48 5.0 E 13 24 7 13 1027.4 1027.1 0.0
21/12:00pm 13.4 8.3 3.2 50 4.7 E 19 26 10 14 1027.9 1027.5 0.0
21/11:30am 12.7 8.1 3.6 54 4.2 ESE 17 24 9 13 1028.3 1028.0 0.0
21/11:00am 12.0 7.2 4.5 60 3.5 ESE 19 28 10 15 1028.5 1028.2 0.0
21/10:30am 11.8 8.2 5.2 64 3.1 SE 13 19 7 10 1028.9 1028.6 0.0
21/10:00am 10.3 6.8 5.3 71 2.4 SSE 13 19 7 10 1028.9 1028.6 0.0
21/09:30am 10.1 6.5 4.9 70 2.4 SE 13 20 7 11 1028.7 1028.4 0.0
21/09:00am 9.8 6.5 4.6 70 2.4 ESE 11 17 6 9 1028.4 1028.1 0.0
21/08:30am 9.2 5.5 4.2 71 2.3 SE 13 19 7 10 1028.3 1028.0 0.0
21/08:00am 8.5 4.8 4.3 75 1.9 SE 13 17 7 9 1028.0 1027.7 0.0
21/07:30am 8.0 4.6 4.0 76 1.8 SE 11 15 6 8 1027.6 1027.2 0.0
21/07:00am 8.2 4.0 4.0 75 1.9 SE 15 20 8 11 1027.2 1026.9 0.0
21/06:30am 7.6 3.9 4.2 79 1.5 SE 13 20 7 11 1027.0 1026.7 0.0
21/06:00am 7.4 3.3 4.4 81 1.4 SE 15 20 8 11 1026.9 1026.6 0.0
21/05:30am 7.4 4.5 4.4 81 1.4 SE 9 13 5 7 1026.8 1026.5 0.0
21/05:00am 6.6 4.4 3.6 81 1.3 ESE 4 7 2 4 1026.8 1026.5 0.0
21/04:30am 7.3 4.6 3.9 79 1.5 ESE 7 9 4 5 1026.9 1026.6 0.0
21/04:00am 7.9 4.5 4.1 77 1.7 SE 11 17 6 9 1026.9 1026.6 0.0
21/03:30am 6.5 4.1 2.4 75 1.7 NE 4 9 2 5 1026.9 1026.6 0.0
21/03:00am 6.7 3.8 2.6 75 1.8 ESE 7 11 4 6 1027.0 1026.7 0.0
21/02:30am 8.1 3.8 3.2 71 2.2 SE 15 20 8 11 1027.1 1026.8 0.0
21/02:00am 8.6 4.3 3.0 68 2.5 ESE 15 20 8 11 1027.1 1026.8 0.0
21/01:30am 8.3 4.2 2.3 66 2.6 SE 13 19 7 10 1027.2 1026.9 0.0
21/01:00am 8.3 4.2 2.1 65 2.7 SE 13 17 7 9 1027.2 1026.9 0.0
21/12:30am 8.5 4.8 2.5 66 2.6 SE 11 15 6 8 1027.4 1027.1 0.0
21/12:00am 8.4 4.7 2.6 67 2.5 SE 11 13 6 7 1027.4 1027.1 0.0
 
Date/Time
CST
Temp
°C
App
Temp
°C
Dew
Point
°C
Rel
Hum
%
Delta-T
°C
Wind Press
QNH
hPa
Press
MSL
hPa
Rain since
9am
mm
Dir  Spd
km/h
Gust
km/h
Spd
kts
Gust
kts
20/11:30pm 9.0 5.3 2.3 63 2.9 SSE 11 15 6 8 1027.6 1027.2 0.0
20/11:00pm 8.7 7.1 2.3 64 2.8 CALM 0 7 0 4 1027.7 1027.3 0.0
20/10:30pm 6.8 4.0 -0.6 59 2.9 E 4 7 2 4 1027.7 1027.3 0.0
20/10:00pm 9.0 5.3 0.2 54 3.7 SE 9 11 5 6 1027.7 1027.3 0.0
20/09:30pm 9.1 5.3 -1.0 49 4.1 SE 9 11 5 6 1027.4 1027.1 0.0
20/09:00pm 9.5 5.6 -1.8 45 4.5 SE 9 9 5 5 1027.3 1027.0 0.0
20/08:30pm 9.9 5.6 -1.8 44 4.7 SE 11 15 6 8 1027.1 1026.8 0.0
20/08:00pm 10.1 5.7 -2.2 42 4.9 SSE 11 15 6 8 1026.9 1026.6 0.0
20/07:30pm 11.4 6.2 -2.4 38 5.5 SSE 15 22 8 12 1026.5 1026.1 0.0
20/07:00pm 11.8 6.3 -2.0 38 5.6 S 17 26 9 14 1026.2 1025.8 0.0
20/06:30pm 11.8 7.5 -2.0 38 5.6 S 11 15 6 8 1025.8 1025.5 0.0
20/06:00pm 12.7 8.1 -1.2 38 5.8 S 13 20 7 11 1025.2 1024.8 0.0
20/05:30pm 13.4 8.9 -0.3 39 5.9 S 13 17 7 9 1025.1 1024.7 0.0
20/05:00pm 14.0 9.3 0.6 40 5.9 SSW 15 26 8 14 1024.8 1024.4 0.0
20/04:30pm 14.5 10.3 1.4 41 5.9 SSW 13 19 7 10 1024.8 1024.4 0.0
20/04:00pm 14.4 10.2 1.7 42 5.8 SSW 13 20 7 11 1025.0 1024.6 0.0
20/03:30pm 14.6 9.2 2.2 43 5.7 SSW 20 26 11 14 1025.0 1024.6 0.0
20/03:00pm 15.1 9.8 2.0 41 6.0 S 19 26 10 14 1025.1 1024.7 0.0
20/02:30pm 15.2 10.0 2.4 42 5.9 S 19 26 10 14 1025.2 1024.8 0.0
20/02:00pm 15.4 10.7 2.9 43 5.9 S 17 26 9 14 1025.2 1024.8 0.0
20/01:30pm 14.9 9.8 3.1 45 5.5 SSW 19 26 10 14 1025.6 1025.3 0.0
20/01:00pm 14.6 9.9 3.4 47 5.3 SSW 17 30 9 16 1026.1 1025.7 0.0
20/12:30pm 14.1 8.9 3.6 49 4.9 S 20 28 11 15 1026.4 1026.0 0.0
20/12:00pm 13.4 8.2 3.8 52 4.5 SSW 20 30 11 16 1027.1 1026.8 0.0
20/11:30am 12.3 7.5 4.8 60 3.6 SSW 19 28 10 15 1027.6 1027.2 0.0
20/11:00am 11.6 6.9 5.3 65 3.0 SW 19 30 10 16 1027.9 1027.5 0.0
20/10:30am 10.1 6.7 6.1 76 1.9 SSW 13 19 7 10 1028.0 1027.7 0.0
20/10:00am 9.3 5.3 6.6 83 1.3 SW 17 22 9 12 1028.0 1027.7 0.0
20/09:30am 9.1 5.0 6.2 82 1.4 SSW 17 26 9 14 1027.9 1027.5 0.0
20/09:00am 9.2 4.7 5.9 80 1.6 SW 19 26 10 14 1027.4 1027.1 0.0
20/08:30am 9.1 4.5 5.5 78 1.7 SW 19 28 10 15 1027.1 1026.8 0.0
20/08:00am 8.0 3.4 3.5 73 2.0 SW 17 20 9 11 1026.7 1026.3 0.0
20/07:30am 7.6 3.3 3.1 73 2.0 SW 15 22 8 12 1026.4 1026.0 0.0
20/07:00am 7.5 2.6 2.0 68 2.4 SW 17 20 9 11 1025.9 1025.6 0.0
20/06:30am 7.3 3.0 1.0 64 2.6 W 13 19 7 10 1025.8 1025.5 0.0
20/06:00am 8.0 4.1 1.2 62 2.9 WSW 11 15 6 8 1025.6 1025.3 0.0
20/05:30am 8.8 4.2 1.7 61 3.0 WSW 15 19 8 10 1025.3 1024.9 0.0
20/05:00am 9.6 4.1 0.8 54 3.7 SW 19 26 10 14 1025.0 1024.6 0.0
20/04:30am 10.7 4.5 -3.0 38 5.4 SSW 20 28 11 15 1024.9 1024.5 0.0
20/04:00am 10.7 4.7 -6.6 29 6.3 WSW 17 20 9 11 1024.7 1024.3 0.0
20/03:30am 11.4 5.4 -6.4 28 6.5 WSW 17 20 9 11 1024.6 1024.2 0.0
20/03:00am 11.4 6.2 -6.4 28 6.5 WSW 13 17 7 9 1024.4 1024.1 0.0
20/02:30am 11.1 6.2 -6.7 28 6.4 WSW 11 13 6 7 1024.4 1024.1 0.0
20/02:00am 10.9 6.4 -6.4 29 6.3 SW 9 11 5 6 1024.6 1024.2 0.0
20/01:30am 11.3 7.2 -6.5 28 6.5 SW 7 11 4 6 1024.8 1024.4 0.0
20/01:00am 12.7 8.3 -6.3 26 7.1 SSE 9 13 5 7 1024.6 1024.2 0.0
20/12:30am 12.6 7.4 -6.4 26 7.0 SSE 13 17 7 9 1024.7 1024.3 0.0
20/12:00am 13.0 7.0 -6.5 25 7.3 S 17 20 9 11 1024.9 1024.5 0.0
 
Date/Time
CST
Temp
°C
App
Temp
°C
Dew
Point
°C
Rel
Hum
%
Delta-T
°C
Wind Press
QNH
hPa
Press
MSL
hPa
Rain since
9am
mm
Dir  Spd
km/h
Gust
km/h
Spd
kts
Gust
kts
19/11:30pm 13.2 7.6 -6.9 24 7.4 SSE 15 24 8 13 1024.9 1024.5 0.0
19/11:00pm 13.7 7.3 -7.0 23 7.7 S 19 30 10 16 1025.1 1024.7 0.0
19/10:30pm 13.5 8.3 -6.6 24 7.5 S 13 17 7 9 1024.9 1024.5 0.0
19/10:00pm 13.9 7.9 -6.9 23 7.8 S 17 22 9 12 1024.7 1024.3 0.0
19/09:30pm 14.3 7.3 -7.1 22 8.0 SSW 22 28 12 15 1024.7 1024.3 0.0
19/09:00pm 14.8 8.4 -7.3 21 8.2 S 19 26 10 14 1024.3 1024.0 0.0
19/08:30pm 14.6 9.0 -6.8 22 8.1 S 15 19 8 10 1024.0 1023.6 0.0
19/08:00pm 14.9 8.1 -5.5 24 8.0 SSW 22 39 12 21 1024.1 1023.7 0.0
19/07:30pm 15.0 7.4 -5.4 24 8.0 SW 26 32 14 17 1023.8 1023.4 0.0
19/07:00pm 14.3 9.0 -7.1 22 8.0 SW 13 17 7 9 1023.3 1022.9 0.0
19/06:30pm 15.3 8.8 -7.5 20 8.5 SW 19 22 10 12 1023.2 1022.8 0.0
19/06:00pm 15.9 9.4 -7.7 19 8.8 SW 19 26 10 14 1022.7 1022.3 0.0
19/05:30pm 16.1 11.3 -6.2 21 8.7 WNW 11 15 6 8 1022.6 1022.2 0.0

Other Formats:

Comma delimited format used in spreadsheet applications
http://www.bom.gov.au/fwo/IDD60801/IDD60801.94474.axf

JavaScript Object Notation format (JSON) in row-major order
http://www.bom.gov.au/fwo/IDD60801/IDD60801.94474.json